createdAt,value
2019-01-08T00:02:00.770Z,12.50
2019-01-08T00:04:28.760Z,13.93
2019-01-08T00:06:59.939Z,14.27
2019-01-08T00:09:28.945Z,17.63
2019-01-08T00:11:57.526Z,11.67
2019-01-08T00:14:25.618Z,16.40
2019-01-08T00:16:53.755Z,10.97
2019-01-08T00:19:21.753Z,10.40
2019-01-08T00:21:50.252Z,9.40
2019-01-08T00:24:18.363Z,11.87
2019-01-08T00:26:46.334Z,17.63
2019-01-08T00:29:14.254Z,11.20
2019-01-08T00:31:42.245Z,11.57
2019-01-08T00:34:11.381Z,15.97
2019-01-08T00:36:40.241Z,12.40
2019-01-08T00:39:08.190Z,11.20
2019-01-08T00:41:36.301Z,10.47
2019-01-08T00:44:04.301Z,15.00
2019-01-08T00:46:32.803Z,8.87
2019-01-08T00:49:00.832Z,10.20
2019-01-08T00:51:29.177Z,15.00
2019-01-08T00:53:57.418Z,11.30
2019-01-08T00:56:26.411Z,15.87
2019-01-08T00:58:54.434Z,15.10
2019-01-08T01:01:22.412Z,15.60
2019-01-08T01:03:50.748Z,16.70
2019-01-08T01:06:20.370Z,14.20
2019-01-08T01:08:48.320Z,15.13
2019-01-08T01:11:17.181Z,12.37
2019-01-08T01:13:45.709Z,15.93
2019-01-08T01:16:13.620Z,16.90
2019-01-08T01:18:41.910Z,23.30
2019-01-08T01:21:10.049Z,25.00
2019-01-08T01:23:38.437Z,16.50
2019-01-08T01:26:09.399Z,19.63
2019-01-08T01:28:40.630Z,19.83
2019-01-08T01:31:08.527Z,17.53
2019-01-08T01:33:36.935Z,22.53
2019-01-08T01:36:04.876Z,16.07
2019-01-08T01:38:33.868Z,16.83
2019-01-08T01:41:02.463Z,17.47
2019-01-08T01:43:30.894Z,17.70
2019-01-08T01:45:58.783Z,28.87
2019-01-08T01:48:27.070Z,21.70
2019-01-08T01:50:56.025Z,13.13
2019-01-08T01:53:24.371Z,16.87
2019-01-08T01:55:52.372Z,16.30
2019-01-08T01:58:23.316Z,17.80
2019-01-08T02:00:51.357Z,17.97
2019-01-08T02:03:21.013Z,14.60
2019-01-08T02:05:49.007Z,15.87
2019-01-08T02:08:17.313Z,22.13
2019-01-08T02:10:46.680Z,19.87
2019-01-08T02:13:15.339Z,23.87
2019-01-08T02:15:43.446Z,25.40
2019-01-08T02:18:11.471Z,24.47
2019-01-08T02:20:39.986Z,27.00
2019-01-08T02:23:08.642Z,21.20
2019-01-08T02:25:36.845Z,20.63
2019-01-08T02:28:04.954Z,24.67
2019-01-08T02:30:33.293Z,19.37
2019-01-08T02:33:01.301Z,21.83
2019-01-08T02:35:29.288Z,22.53
2019-01-08T02:37:57.275Z,18.80
2019-01-08T02:40:25.674Z,22.07
2019-01-08T02:42:54.673Z,21.30
2019-01-08T02:45:22.736Z,20.33
2019-01-08T02:47:50.649Z,28.57
2019-01-08T02:50:18.682Z,21.80
2019-01-08T02:52:47.622Z,16.40
2019-01-08T02:55:16.747Z,24.07
2019-01-08T02:57:44.667Z,19.73
2019-01-08T03:00:13.058Z,24.60
2019-01-08T03:02:42.076Z,24.53
2019-01-08T03:05:10.084Z,19.80
2019-01-08T03:07:38.937Z,19.67
2019-01-08T03:10:07.586Z,20.27
2019-01-08T03:12:35.815Z,16.57
2019-01-08T03:15:06.351Z,18.87
2019-01-08T03:17:38.050Z,23.23
2019-01-08T03:20:06.391Z,22.20
2019-01-08T03:22:34.411Z,18.50
2019-01-08T03:25:05.793Z,17.87
2019-01-08T03:27:34.082Z,23.73
2019-01-08T03:30:05.659Z,15.17
2019-01-08T03:32:34.688Z,22.33
2019-01-08T03:35:02.817Z,25.63
2019-01-08T03:37:31.046Z,29.40
2019-01-08T03:39:59.817Z,30.27
2019-01-08T03:42:28.606Z,17.80
2019-01-08T03:44:56.530Z,28.77
2019-01-08T03:47:24.652Z,27.43
2019-01-08T03:49:52.608Z,24.43
2019-01-08T03:52:22.149Z,23.03
2019-01-08T03:54:52.620Z,25.23
2019-01-08T03:57:21.334Z,19.67
2019-01-08T03:59:49.325Z,20.83
2019-01-08T04:02:17.756Z,20.87
2019-01-08T04:04:55.370Z,26.20
2019-01-08T04:07:23.588Z,22.80
2019-01-08T04:09:52.138Z,26.33
2019-01-08T04:12:20.112Z,24.40
2019-01-08T04:14:48.352Z,22.90
2019-01-08T04:17:16.499Z,21.33
2019-01-08T04:19:44.988Z,24.00
2019-01-08T04:22:13.346Z,23.50
2019-01-08T04:24:41.553Z,23.97
2019-01-08T04:27:09.928Z,23.50
2019-01-08T04:29:50.197Z,21.70
2019-01-08T04:32:11.556Z,26.27
2019-01-08T04:34:39.952Z,19.60
2019-01-08T04:37:08.037Z,18.10
2019-01-08T04:39:36.040Z,20.63
2019-01-08T04:42:04.233Z,27.57
2019-01-08T04:44:32.702Z,29.07
2019-01-08T04:47:01.840Z,25.27
2019-01-08T04:49:29.923Z,30.53
2019-01-08T04:51:57.844Z,28.60
2019-01-08T04:54:26.855Z,28.17
2019-01-08T04:56:54.824Z,24.30
2019-01-08T04:59:24.675Z,18.20
2019-01-08T05:01:52.927Z,30.57
2019-01-08T05:04:21.754Z,21.53
2019-01-08T05:06:50.142Z,24.33
2019-01-08T05:09:18.419Z,22.47
2019-01-08T05:11:46.884Z,22.43
2019-01-08T05:14:14.909Z,21.47
2019-01-08T05:16:43.216Z,25.03
2019-01-08T05:19:12.365Z,20.70
2019-01-08T05:21:41.935Z,13.27
2019-01-08T05:24:10.668Z,14.60
2019-01-08T05:26:40.020Z,21.50
2019-01-08T05:29:10.924Z,16.23
2019-01-08T05:31:38.888Z,18.67
2019-01-08T05:34:06.885Z,10.77
2019-01-08T05:36:35.474Z,12.10
2019-01-08T05:39:04.621Z,19.33
2019-01-08T05:41:32.681Z,18.43
2019-01-08T05:44:01.784Z,21.17
2019-01-08T05:46:30.281Z,16.23
2019-01-08T05:48:58.287Z,25.13
2019-01-08T05:51:27.724Z,13.60
2019-01-08T05:53:59.872Z,12.13
2019-01-08T05:56:28.232Z,17.53
2019-01-08T05:58:56.226Z,11.17
2019-01-08T06:01:24.158Z,9.27
2019-01-08T06:03:52.611Z,10.50
2019-01-08T06:06:20.989Z,18.80
2019-01-08T06:08:48.991Z,12.37
2019-01-08T06:11:16.993Z,17.47
2019-01-08T06:13:45.510Z,10.30
2019-01-08T06:16:13.535Z,13.67
2019-01-08T06:18:41.478Z,13.80
2019-01-08T06:21:10.713Z,15.30
2019-01-08T06:23:39.555Z,10.80
2019-01-08T06:26:07.547Z,15.67
2019-01-08T06:28:36.232Z,14.97
2019-01-08T06:31:07.236Z,17.53
2019-01-08T06:33:35.243Z,19.60
2019-01-08T06:36:03.333Z,19.07
2019-01-08T06:38:31.704Z,20.27
2019-01-08T06:40:59.649Z,18.10
2019-01-08T06:43:31.139Z,19.13
2019-01-08T06:45:59.183Z,13.80
2019-01-08T06:48:27.955Z,17.57
2019-01-08T06:51:02.033Z,13.07
2019-01-08T06:53:30.816Z,17.63
2019-01-08T06:55:58.891Z,14.87
2019-01-08T06:58:28.022Z,16.43
2019-01-08T07:00:56.021Z,16.17
2019-01-08T07:03:24.022Z,13.60
2019-01-08T07:05:55.541Z,11.07
2019-01-08T07:08:23.490Z,25.63
2019-01-08T07:10:51.464Z,17.23
2019-01-08T07:13:20.926Z,19.27
2019-01-08T07:15:49.599Z,17.67
2019-01-08T07:18:17.658Z,20.27
2019-01-08T07:20:45.813Z,15.10
2019-01-08T07:23:13.802Z,17.37
2019-01-08T07:25:42.601Z,19.77
2019-01-08T07:28:11.191Z,16.20
2019-01-08T07:30:41.741Z,14.23
2019-01-08T07:33:09.151Z,24.17
2019-01-08T07:35:37.546Z,24.67
2019-01-08T07:38:05.673Z,20.73
2019-01-08T07:40:35.373Z,17.47
2019-01-08T07:43:03.778Z,12.87
2019-01-08T07:45:32.244Z,16.80
2019-01-08T07:48:00.360Z,16.00
2019-01-08T07:50:31.264Z,19.30
2019-01-08T07:53:00.139Z,21.77
2019-01-08T07:55:28.198Z,17.53
2019-01-08T07:57:56.483Z,19.97
2019-01-08T08:00:25.463Z,24.50
2019-01-08T08:02:53.758Z,24.73
2019-01-08T08:05:30.988Z,16.80
2019-01-08T08:07:59.609Z,20.37
2019-01-08T08:10:27.648Z,21.97
2019-01-08T08:12:55.827Z,19.43
2019-01-08T08:15:24.021Z,21.30
2019-01-08T08:17:53.579Z,20.97
2019-01-08T08:20:24.910Z,21.90
2019-01-08T08:22:55.920Z,24.90
2019-01-08T08:25:24.516Z,17.40
2019-01-08T08:27:52.526Z,16.53
2019-01-08T08:30:20.512Z,17.60
2019-01-08T08:32:49.165Z,18.77
2019-01-08T08:35:20.852Z,19.83
2019-01-08T08:37:49.268Z,21.93
2019-01-08T08:40:17.386Z,19.63
2019-01-08T08:42:46.127Z,19.70
2019-01-08T08:45:14.399Z,22.40
2019-01-08T08:47:42.929Z,16.33
2019-01-08T08:50:11.843Z,18.60
2019-01-08T08:52:40.156Z,23.37
2019-01-08T08:55:08.154Z,21.90
2019-01-08T08:57:36.864Z,14.73
2019-01-08T09:00:07.112Z,15.67
2019-01-08T09:02:35.293Z,14.53
2019-01-08T09:05:03.892Z,23.17
2019-01-08T09:07:32.022Z,19.73
2019-01-08T09:09:59.980Z,23.13
2019-01-08T09:12:28.328Z,18.13
2019-01-08T09:14:57.583Z,12.67
2019-01-08T09:17:25.663Z,19.60
2019-01-08T09:19:53.873Z,23.80
2019-01-08T09:22:22.400Z,23.90
2019-01-08T09:24:50.881Z,18.07
2019-01-08T09:27:19.331Z,23.33
2019-01-08T09:29:49.103Z,25.00
2019-01-08T09:32:19.384Z,20.63
2019-01-08T09:34:47.329Z,13.83
2019-01-08T09:37:15.512Z,18.40
2019-01-08T09:39:44.086Z,17.97
2019-01-08T09:42:12.563Z,13.47
2019-01-08T09:44:40.562Z,21.83
2019-01-08T09:47:08.535Z,17.13
2019-01-08T09:49:36.749Z,14.73
2019-01-08T09:52:05.378Z,25.03
2019-01-08T09:54:34.256Z,18.33
2019-01-08T09:57:02.363Z,23.73
2019-01-08T09:59:32.436Z,22.10
2019-01-08T10:02:01.846Z,24.00
2019-01-08T10:04:30.544Z,23.80
2019-01-08T10:06:58.782Z,20.27
2019-01-08T10:09:26.851Z,35.47
2019-01-08T10:11:55.399Z,26.23
2019-01-08T10:14:23.533Z,30.23
2019-01-08T10:16:51.527Z,30.27
2019-01-08T10:19:19.506Z,27.70
2019-01-08T10:21:47.755Z,21.60
2019-01-08T10:24:15.822Z,37.87
2019-01-08T10:26:43.777Z,24.77
2019-01-08T10:29:12.975Z,25.73
2019-01-08T10:31:41.426Z,36.13
2019-01-08T10:34:13.853Z,26.63
2019-01-08T10:36:41.819Z,28.27
2019-01-08T10:39:12.611Z,26.67
2019-01-08T10:41:44.059Z,34.30
2019-01-08T10:44:12.280Z,26.40
2019-01-08T10:46:40.510Z,26.20
2019-01-08T10:49:08.533Z,28.27
2019-01-08T10:51:37.120Z,27.77
2019-01-08T10:54:06.293Z,14.47
2019-01-08T10:56:37.285Z,32.13
2019-01-08T10:59:07.677Z,28.30
2019-01-08T11:01:40.776Z,28.47
2019-01-08T11:04:06.630Z,22.23
2019-01-08T11:06:34.794Z,24.27
2019-01-08T11:09:04.054Z,30.43
2019-01-08T11:11:34.399Z,26.43
2019-01-08T11:14:02.872Z,35.37
2019-01-08T11:16:30.859Z,27.00
2019-01-08T11:18:58.875Z,33.80
2019-01-08T11:21:27.130Z,25.60
2019-01-08T11:23:55.259Z,23.53
2019-01-08T11:26:23.701Z,29.83
2019-01-08T11:28:53.413Z,24.43
2019-01-08T11:31:23.423Z,23.13
2019-01-08T11:33:51.643Z,20.10
2019-01-08T11:36:19.606Z,22.20
2019-01-08T11:38:48.115Z,16.20
2019-01-08T11:41:17.974Z,22.73
2019-01-08T11:43:46.068Z,17.90
2019-01-08T11:46:17.748Z,23.17
2019-01-08T11:48:46.478Z,26.57
2019-01-08T11:51:17.023Z,24.93
2019-01-08T11:53:46.153Z,19.40
2019-01-08T11:56:20.057Z,20.53
2019-01-08T11:58:48.972Z,23.63
2019-01-08T12:01:19.330Z,22.93
2019-01-08T12:03:51.482Z,22.57
2019-01-08T12:06:20.630Z,23.43
2019-01-08T12:08:52.270Z,25.83
2019-01-08T12:11:21.432Z,29.57
2019-01-08T12:13:51.769Z,38.23
2019-01-08T12:16:22.217Z,28.40
2019-01-08T12:18:51.269Z,24.63
2019-01-08T12:21:20.270Z,26.10
2019-01-08T12:23:49.316Z,20.93
2019-01-08T12:26:18.289Z,24.67
2019-01-08T12:28:47.781Z,25.97
2019-01-08T12:31:17.560Z,21.40
2019-01-08T12:33:47.147Z,22.57
2019-01-08T12:36:16.112Z,16.77
2019-01-08T12:38:46.479Z,23.23
2019-01-08T12:41:15.509Z,20.50
2019-01-08T12:43:44.618Z,27.50
2019-01-08T12:46:13.606Z,27.17
2019-01-08T12:48:42.708Z,25.67
2019-01-08T12:51:13.990Z,24.87
2019-01-08T12:53:48.175Z,20.57
2019-01-08T12:56:17.611Z,27.90
2019-01-08T12:58:46.557Z,20.47
2019-01-08T13:01:16.054Z,26.50
2019-01-08T13:03:45.069Z,22.37
2019-01-08T13:06:14.141Z,23.67
2019-01-08T13:08:51.396Z,28.47
2019-01-08T13:11:20.796Z,13.23
2019-01-08T13:13:49.933Z,17.40
2019-01-08T13:16:19.109Z,18.93
2019-01-08T13:18:48.451Z,12.80
2019-01-08T13:21:17.764Z,16.43
2019-01-08T13:23:47.510Z,20.93
2019-01-08T13:26:16.554Z,21.47
2019-01-08T13:28:46.375Z,18.20
2019-01-08T13:31:16.950Z,12.17
2019-01-08T13:33:46.221Z,15.57
2019-01-08T13:36:15.827Z,13.27
2019-01-08T13:38:44.885Z,18.00
2019-01-08T13:41:14.080Z,16.23
2019-01-08T13:43:43.550Z,16.00
2019-01-08T13:46:14.168Z,15.07
2019-01-08T13:48:45.861Z,12.83
2019-01-08T13:51:17.429Z,13.43
2019-01-08T13:53:46.427Z,16.13
2019-01-08T13:56:15.645Z,15.30
2019-01-08T13:58:44.633Z,14.00
2019-01-08T14:01:13.649Z,17.17
2019-01-08T14:03:42.694Z,11.27
2019-01-08T14:06:12.512Z,10.43
2019-01-08T14:08:41.630Z,14.73
2019-01-08T14:11:10.686Z,16.70
2019-01-08T14:13:39.945Z,15.67
2019-01-08T14:16:09.362Z,14.30
2019-01-08T14:18:39.492Z,19.10
2019-01-08T14:21:12.363Z,20.33
2019-01-08T14:23:41.777Z,16.97
2019-01-08T14:26:11.746Z,15.47
2019-01-08T14:28:41.714Z,18.30
2019-01-08T14:31:12.183Z,24.80
2019-01-08T14:33:42.240Z,21.33
2019-01-08T14:36:11.389Z,16.40
2019-01-08T14:38:41.290Z,17.33
2019-01-08T14:41:10.886Z,18.57
2019-01-08T14:43:40.104Z,24.10
2019-01-08T14:46:09.423Z,27.43
2019-01-08T14:48:39.272Z,24.00
2019-01-08T14:51:08.345Z,25.20
2019-01-08T14:53:39.015Z,18.40
2019-01-08T14:56:10.046Z,23.00
2019-01-08T14:58:41.864Z,20.00
2019-01-08T15:01:10.812Z,17.70
2019-01-08T15:03:43.080Z,20.70
2019-01-08T15:06:12.078Z,20.53
2019-01-08T15:08:42.119Z,20.00
2019-01-08T15:11:11.299Z,21.80
2019-01-08T15:13:42.060Z,21.37
2019-01-08T15:16:11.017Z,22.47
2019-01-08T15:18:49.251Z,26.67
2019-01-08T15:21:22.123Z,19.53
2019-01-08T15:23:52.334Z,18.63
2019-01-08T15:26:21.332Z,21.70
2019-01-08T15:28:50.988Z,20.70
2019-01-08T15:31:19.954Z,28.67
2019-01-08T15:33:49.466Z,15.50
2019-01-08T15:36:18.462Z,17.07
2019-01-08T15:38:48.188Z,15.03
2019-01-08T15:41:18.548Z,19.10
2019-01-08T15:43:47.967Z,20.40
2019-01-08T15:46:17.176Z,20.43
2019-01-08T15:48:47.189Z,20.33
2019-01-08T15:51:16.484Z,18.37
2019-01-08T15:53:46.790Z,21.10
2019-01-08T15:56:15.992Z,18.70
2019-01-08T15:58:45.497Z,16.97
2019-01-08T16:01:14.472Z,17.20
2019-01-08T16:03:44.097Z,22.50
2019-01-08T16:06:13.723Z,22.07
2019-01-08T16:08:43.094Z,19.53
2019-01-08T16:11:12.136Z,40.10
2019-01-08T16:13:41.139Z,31.20
2019-01-08T16:16:10.202Z,42.97
2019-01-08T16:18:39.911Z,27.37
2019-01-08T16:21:10.477Z,33.70
2019-01-08T16:23:39.957Z,25.57
2019-01-08T16:26:10.164Z,16.93
2019-01-08T16:28:39.920Z,20.17
2019-01-08T16:31:10.938Z,22.43
2019-01-08T16:33:40.873Z,22.17
2019-01-08T16:36:10.092Z,15.63
2019-01-08T16:38:42.985Z,12.73
2019-01-08T16:41:13.249Z,8.67
2019-01-08T16:43:46.292Z,25.57
2019-01-08T16:46:15.479Z,16.00
2019-01-08T16:48:44.480Z,22.13
2019-01-08T16:51:13.863Z,20.93
2019-01-08T16:53:44.439Z,26.40
2019-01-08T16:56:13.409Z,29.60
2019-01-08T16:58:42.670Z,26.57
2019-01-08T17:01:11.854Z,17.50
2019-01-08T17:03:42.480Z,20.20
2019-01-08T17:06:14.204Z,28.07
2019-01-08T17:08:44.304Z,23.20
2019-01-08T17:11:18.444Z,24.70
2019-01-08T17:13:47.820Z,19.63
2019-01-08T17:16:18.251Z,15.37
2019-01-08T17:18:47.904Z,15.60
2019-01-08T17:21:22.027Z,27.47
2019-01-08T17:23:52.739Z,26.53
2019-01-08T17:26:23.166Z,24.87
2019-01-08T17:28:53.515Z,17.10
2019-01-08T17:31:27.601Z,21.57
2019-01-08T17:34:00.905Z,21.23
2019-01-08T17:36:31.875Z,17.87
2019-01-08T17:39:05.451Z,16.80
2019-01-08T17:41:37.956Z,17.87
2019-01-08T17:44:08.836Z,14.83
2019-01-08T17:46:42.221Z,17.00
2019-01-08T17:49:13.600Z,22.63
2019-01-08T17:51:47.899Z,18.20
2019-01-08T17:54:17.879Z,16.03
2019-01-08T17:56:48.929Z,18.40
2019-01-08T17:59:22.995Z,16.17
2019-01-08T18:02:04.241Z,23.17
2019-01-08T18:04:33.546Z,24.27
2019-01-08T18:07:03.985Z,26.30
2019-01-08T18:09:35.440Z,19.77
2019-01-08T18:12:09.177Z,22.80
2019-01-08T18:14:39.337Z,18.23
2019-01-08T18:17:09.042Z,18.67
2019-01-08T18:19:44.024Z,20.30
2019-01-08T18:22:13.921Z,24.50
2019-01-08T18:24:44.807Z,25.33
2019-01-08T18:27:19.510Z,23.67
2019-01-08T18:29:50.709Z,21.03
2019-01-08T18:32:21.771Z,24.63
2019-01-08T18:34:51.584Z,25.40
2019-01-08T18:37:22.673Z,17.87
2019-01-08T18:39:51.916Z,19.77
2019-01-08T18:42:21.928Z,19.70
2019-01-08T18:44:51.487Z,24.03
2019-01-08T18:47:20.949Z,23.70
2019-01-08T18:49:52.762Z,22.23
2019-01-08T18:52:23.990Z,28.83
2019-01-08T18:54:53.356Z,18.87
2019-01-08T18:57:27.633Z,22.13
2019-01-08T19:00:01.181Z,17.73
2019-01-08T19:02:32.667Z,19.73
2019-01-08T19:05:01.879Z,18.23
2019-01-08T19:07:37.954Z,18.47
2019-01-08T19:10:11.008Z,25.60
2019-01-08T19:12:43.230Z,20.10
2019-01-08T19:15:15.842Z,24.23
2019-01-08T19:17:46.268Z,15.97
2019-01-08T19:20:15.887Z,23.13
2019-01-08T19:22:45.372Z,17.83
2019-01-08T19:25:15.287Z,19.27
2019-01-08T19:27:47.187Z,23.07
2019-01-08T19:30:22.055Z,13.63
2019-01-08T19:32:51.143Z,17.80
2019-01-08T19:35:20.481Z,19.37
2019-01-08T19:37:54.059Z,18.70
2019-01-08T19:40:27.597Z,18.30
2019-01-08T19:43:00.953Z,21.00
2019-01-08T19:45:32.709Z,28.23
2019-01-08T19:48:01.962Z,21.20
2019-01-08T19:50:32.889Z,42.03
2019-01-08T19:53:02.044Z,18.33
2019-01-08T19:55:35.763Z,18.03
2019-01-08T19:58:08.824Z,18.00
2019-01-08T20:00:38.428Z,20.67
2019-01-08T20:03:10.164Z,25.67
2019-01-08T20:05:40.648Z,25.40
2019-01-08T20:08:55.010Z,37.30
2019-01-08T20:11:38.741Z,19.53
2019-01-08T20:14:30.892Z,22.40
2019-01-08T20:17:07.703Z,20.37
2019-01-08T20:19:37.883Z,17.33
2019-01-08T20:22:10.827Z,24.07
2019-01-08T20:24:43.510Z,24.90
2019-01-08T20:27:22.504Z,16.37
2019-01-08T20:29:51.985Z,15.77
2019-01-08T20:32:25.249Z,16.67
2019-01-08T20:35:15.439Z,27.97
2019-01-08T20:37:47.221Z,21.13
2019-01-08T20:40:16.749Z,21.03
2019-01-08T20:42:46.676Z,25.17
2019-01-08T20:45:19.872Z,18.43
2019-01-08T20:48:15.307Z,22.40
2019-01-08T20:50:48.322Z,30.63
2019-01-08T20:53:23.856Z,28.30
2019-01-08T20:55:59.942Z,27.63
2019-01-08T20:58:30.065Z,27.83
2019-01-08T21:01:00.929Z,33.73
2019-01-08T21:03:30.146Z,30.60
2019-01-08T21:06:04.750Z,27.90
2019-01-08T21:08:35.759Z,25.47
2019-01-08T21:11:06.271Z,38.40
2019-01-08T21:13:36.518Z,33.70
2019-01-08T21:16:07.394Z,27.33
2019-01-08T21:18:50.191Z,26.37
2019-01-08T21:21:19.935Z,23.60
2019-01-08T21:23:50.088Z,24.27
2019-01-08T21:29:32.929Z,23.40
2019-01-08T21:32:21.237Z,19.97
2019-01-08T21:35:08.538Z,19.17
2019-01-08T21:37:55.593Z,14.90
2019-01-08T21:40:43.840Z,19.03
2019-01-08T21:43:30.675Z,23.37
2019-01-08T21:46:19.364Z,22.40
2019-01-08T21:49:11.775Z,20.37
2019-01-08T21:52:05.612Z,27.13
2019-01-08T21:57:41.913Z,27.20
2019-01-08T22:03:06.782Z,25.63
2019-01-08T22:05:34.806Z,23.10
2019-01-08T22:08:21.001Z,27.97
2019-01-08T22:10:49.054Z,20.13
2019-01-08T22:13:17.327Z,24.77
2019-01-08T22:15:45.721Z,24.67
2019-01-08T22:18:13.534Z,16.03
2019-01-08T22:20:41.310Z,16.87
2019-01-08T22:23:09.520Z,18.03
2019-01-08T22:25:37.337Z,15.10
2019-01-08T22:28:05.214Z,13.77
2019-01-08T22:30:33.096Z,22.13
2019-01-08T22:33:04.158Z,17.20
2019-01-08T22:35:32.691Z,19.83
2019-01-08T22:38:00.496Z,23.77
2019-01-08T22:40:28.337Z,18.10
2019-01-08T22:42:56.194Z,18.33
2019-01-08T22:45:23.971Z,14.90
2019-01-08T22:47:55.178Z,13.70
2019-01-08T22:50:23.073Z,18.03
2019-01-08T22:52:51.943Z,13.07
2019-01-08T22:55:19.692Z,11.03
2019-01-08T22:57:49.082Z,9.53
2019-01-08T23:00:37.068Z,5.17
2019-01-08T23:03:05.200Z,10.10
2019-01-08T23:05:33.678Z,9.53
2019-01-08T23:08:01.535Z,8.67
2019-01-08T23:10:31.143Z,6.83
2019-01-08T23:13:00.239Z,10.57
2019-01-08T23:15:28.716Z,3.00
2019-01-08T23:17:57.299Z,1.20
2019-01-08T23:20:25.185Z,4.33
2019-01-08T23:22:53.444Z,3.03
2019-01-08T23:25:21.648Z,5.50
2019-01-08T23:27:49.434Z,5.73
2019-01-08T23:30:17.367Z,7.30
2019-01-08T23:32:45.155Z,2.40
2019-01-08T23:35:19.519Z,7.00
2019-01-08T23:37:44.274Z,11.27
2019-01-08T23:40:12.067Z,9.33
2019-01-08T23:42:39.918Z,11.33
2019-01-08T23:45:08.971Z,16.73
2019-01-08T23:47:36.984Z,14.23
2019-01-08T23:50:05.024Z,15.93
2019-01-08T23:52:48.721Z,8.40
2019-01-08T23:55:20.221Z,7.57
2019-01-08T23:57:50.733Z,9.30
